createdAt,value
2022-12-05T00:00:13.580Z,999.42
2022-12-05T00:01:13.665Z,999.45
2022-12-05T00:02:15.044Z,999.47
2022-12-05T00:03:13.403Z,999.44
2022-12-05T00:04:13.715Z,999.46
2022-12-05T00:05:13.754Z,999.44
2022-12-05T00:06:13.783Z,999.42
2022-12-05T00:07:14.005Z,999.44
2022-12-05T00:08:13.427Z,999.41
2022-12-05T00:09:13.727Z,999.41
2022-12-05T00:10:13.700Z,999.45
2022-12-05T00:11:13.563Z,999.44
2022-12-05T00:12:13.988Z,999.44
2022-12-05T00:13:13.346Z,999.43
2022-12-05T00:14:13.440Z,999.45
2022-12-05T00:15:13.443Z,999.45
2022-12-05T00:16:13.389Z,999.45
2022-12-05T00:17:13.697Z,999.43
2022-12-05T00:18:13.818Z,999.49
2022-12-05T00:19:13.983Z,999.44
2022-12-05T00:20:13.083Z,999.46
2022-12-05T00:21:12.991Z,999.42
2022-12-05T00:22:12.787Z,999.44
2022-12-05T00:23:13.885Z,999.45
2022-12-05T00:24:13.866Z,999.49
2022-12-05T00:25:14.363Z,999.44
2022-12-05T00:26:13.645Z,999.47
2022-12-05T00:27:13.911Z,999.46
2022-12-05T00:28:12.724Z,999.42
2022-12-05T00:29:13.924Z,999.47
2022-12-05T00:30:12.964Z,999.48
2022-12-05T00:31:13.156Z,999.49
2022-12-05T00:32:13.372Z,999.53
2022-12-05T00:33:13.299Z,999.57
2022-12-05T00:34:13.507Z,999.57
2022-12-05T00:35:13.600Z,999.56
2022-12-05T00:36:13.763Z,999.57
2022-12-05T00:37:13.776Z,999.60
2022-12-05T00:38:13.646Z,999.57
2022-12-05T00:39:13.717Z,999.55
2022-12-05T00:40:13.894Z,999.52
2022-12-05T00:41:13.931Z,999.53
2022-12-05T00:42:13.136Z,999.48
2022-12-05T00:43:13.164Z,999.49
2022-12-05T00:44:13.049Z,999.52
2022-12-05T00:45:13.594Z,999.52
2022-12-05T00:46:13.655Z,999.52
2022-12-05T00:47:14.052Z,999.47
2022-12-05T00:48:12.992Z,999.46
2022-12-05T00:49:13.203Z,999.48
2022-12-05T00:50:13.139Z,999.42
2022-12-05T00:51:13.353Z,999.41
2022-12-05T00:52:13.462Z,999.42
2022-12-05T00:53:13.996Z,999.38
2022-12-05T00:54:12.983Z,999.36
2022-12-05T00:55:12.970Z,999.37
2022-12-05T00:56:12.933Z,999.37
2022-12-05T00:57:12.883Z,999.36
2022-12-05T00:58:13.809Z,999.33
2022-12-05T00:59:13.770Z,999.35
2022-12-05T01:00:13.686Z,999.32
2022-12-05T01:01:13.818Z,999.29
2022-12-05T01:02:13.120Z,999.33
2022-12-05T01:03:13.308Z,999.30
2022-12-05T01:04:13.236Z,999.33
2022-12-05T01:05:13.155Z,999.33
2022-12-05T01:06:13.546Z,999.30
2022-12-05T01:07:13.720Z,999.32
2022-12-05T01:08:14.002Z,999.34
2022-12-05T01:09:13.256Z,999.30
2022-12-05T01:10:13.046Z,999.33
2022-12-05T01:11:13.285Z,999.35
2022-12-05T01:12:13.727Z,999.37
2022-12-05T01:13:13.763Z,999.34
2022-12-05T01:14:13.864Z,999.31
2022-12-05T01:15:13.938Z,999.35
2022-12-05T01:16:12.906Z,999.35
2022-12-05T01:17:13.113Z,999.35
2022-12-05T01:18:13.284Z,999.40
2022-12-05T01:19:13.276Z,999.34
2022-12-05T01:20:13.252Z,999.33
2022-12-05T01:21:13.154Z,999.32
2022-12-05T01:22:13.094Z,999.32
2022-12-05T01:23:13.168Z,999.32
2022-12-05T01:24:13.381Z,999.34
2022-12-05T01:25:13.319Z,999.34
2022-12-05T01:26:13.177Z,999.31
2022-12-05T01:27:13.140Z,999.35
2022-12-05T01:28:13.525Z,999.30
2022-12-05T01:29:13.819Z,999.33
2022-12-05T01:30:12.803Z,999.30
2022-12-05T01:31:14.176Z,999.35
2022-12-05T01:32:13.303Z,999.34
2022-12-05T01:33:13.847Z,999.31
2022-12-05T01:34:13.993Z,999.36
2022-12-05T01:35:14.166Z,999.36
2022-12-05T01:36:13.096Z,999.38
2022-12-05T01:37:13.199Z,999.38
2022-12-05T01:38:13.281Z,999.41
2022-12-05T01:39:13.212Z,999.41
2022-12-05T01:40:13.348Z,999.39
2022-12-05T01:41:13.557Z,999.39
2022-12-05T01:42:13.675Z,999.42
2022-12-05T01:43:13.678Z,999.42
2022-12-05T01:44:13.627Z,999.41
2022-12-05T01:45:13.634Z,999.43
2022-12-05T01:46:13.554Z,999.41
2022-12-05T01:47:13.653Z,999.42
2022-12-05T01:48:13.851Z,999.40
2022-12-05T01:49:13.988Z,999.39
2022-12-05T01:50:12.941Z,999.40
2022-12-05T01:51:12.904Z,999.40
2022-12-05T01:52:12.975Z,999.36
2022-12-05T01:53:12.919Z,999.41
2022-12-05T01:54:13.010Z,999.44
2022-12-05T01:55:12.912Z,999.41
2022-12-05T01:56:12.887Z,999.40
2022-12-05T01:57:13.075Z,999.42
2022-12-05T01:58:13.117Z,999.42
2022-12-05T01:59:13.672Z,999.43
2022-12-05T02:00:13.510Z,999.42
2022-12-05T02:01:13.838Z,999.46
2022-12-05T02:02:13.062Z,999.45
2022-12-05T02:03:13.286Z,999.47
2022-12-05T02:04:13.359Z,999.43
2022-12-05T02:05:18.623Z,999.46
2022-12-05T02:06:13.721Z,999.46
2022-12-05T02:07:14.168Z,999.44
2022-12-05T02:08:13.488Z,999.54
2022-12-05T02:09:13.712Z,999.51
2022-12-05T02:10:13.765Z,999.50
2022-12-05T02:11:13.641Z,999.52
2022-12-05T02:12:13.633Z,999.50
2022-12-05T02:13:13.740Z,999.53
2022-12-05T02:14:14.181Z,999.54
2022-12-05T02:15:13.030Z,999.61
2022-12-05T02:16:12.998Z,999.55
2022-12-05T02:17:12.988Z,999.53
2022-12-05T02:18:13.177Z,999.58
2022-12-05T02:19:13.142Z,999.59
2022-12-05T02:20:13.190Z,999.59
2022-12-05T02:21:13.317Z,999.61
2022-12-05T02:22:13.228Z,999.61
2022-12-05T02:23:13.555Z,999.59
2022-12-05T02:24:13.682Z,999.63
2022-12-05T02:25:13.608Z,999.59
2022-12-05T02:26:13.633Z,999.60
2022-12-05T02:27:13.525Z,999.60
2022-12-05T02:28:13.458Z,999.58
2022-12-05T02:29:13.433Z,999.57
2022-12-05T02:30:13.392Z,999.57
2022-12-05T02:31:13.991Z,999.59
2022-12-05T02:32:13.271Z,999.60
2022-12-05T02:33:13.254Z,999.59
2022-12-05T02:34:13.334Z,999.59
2022-12-05T02:35:13.467Z,999.56
2022-12-05T02:36:13.866Z,999.58
2022-12-05T02:37:13.973Z,999.60
2022-12-05T02:38:13.262Z,999.64
2022-12-05T02:39:13.273Z,999.61
2022-12-05T02:40:13.459Z,999.60
2022-12-05T02:41:13.442Z,999.59
2022-12-05T02:42:13.375Z,999.59
2022-12-05T02:43:13.442Z,999.56
2022-12-05T02:44:13.541Z,999.57
2022-12-05T02:45:13.693Z,999.60
2022-12-05T02:46:14.147Z,999.57
2022-12-05T02:47:13.198Z,999.61
2022-12-05T02:48:13.165Z,999.66
2022-12-05T02:49:13.367Z,999.60
2022-12-05T02:50:13.395Z,999.57
2022-12-05T02:51:13.695Z,999.59
2022-12-05T02:52:13.774Z,999.55
2022-12-05T02:53:13.794Z,999.56
2022-12-05T02:54:13.805Z,999.52
2022-12-05T02:55:13.782Z,999.48
2022-12-05T02:56:13.889Z,999.50
2022-12-05T02:57:13.790Z,999.52
2022-12-05T02:58:13.768Z,999.54
2022-12-05T02:59:17.208Z,999.55
2022-12-05T03:00:13.155Z,999.56
2022-12-05T03:01:13.416Z,999.62
2022-12-05T03:02:13.282Z,999.60
2022-12-05T03:03:13.262Z,999.61
2022-12-05T03:04:13.294Z,999.61
2022-12-05T03:05:13.448Z,999.63
2022-12-05T03:06:13.484Z,999.62
2022-12-05T03:07:13.408Z,999.61
2022-12-05T03:08:13.548Z,999.58
2022-12-05T03:09:13.848Z,999.63
2022-12-05T03:10:13.872Z,999.60
2022-12-05T03:11:14.081Z,999.60
2022-12-05T03:12:13.204Z,999.61
2022-12-05T03:13:13.248Z,999.62
2022-12-05T03:14:13.297Z,999.62
2022-12-05T03:15:13.301Z,999.66
2022-12-05T03:16:13.424Z,999.64
2022-12-05T03:17:13.413Z,999.65
2022-12-05T03:18:13.519Z,999.62
2022-12-05T03:19:13.827Z,999.64
2022-12-05T03:20:14.254Z,999.64
2022-12-05T03:21:13.518Z,999.65
2022-12-05T03:22:13.606Z,999.61
2022-12-05T03:23:13.456Z,999.57
2022-12-05T03:24:13.287Z,999.65
2022-12-05T03:25:13.270Z,999.63
2022-12-05T03:26:13.455Z,999.62
2022-12-05T03:27:13.501Z,999.63
2022-12-05T03:28:13.635Z,999.61
2022-12-05T03:29:13.752Z,999.59
2022-12-05T03:30:13.832Z,999.60
2022-12-05T03:31:14.150Z,999.61
2022-12-05T03:32:13.474Z,999.61
2022-12-05T03:33:13.545Z,999.61
2022-12-05T03:34:13.787Z,999.60
2022-12-05T03:35:13.873Z,999.59
2022-12-05T03:36:14.068Z,999.64
2022-12-05T03:37:13.310Z,999.59
2022-12-05T03:38:13.364Z,999.62
2022-12-05T03:39:13.620Z,999.63
2022-12-05T03:40:13.592Z,999.62
2022-12-05T03:41:13.999Z,999.58
2022-12-05T03:42:13.342Z,999.59
2022-12-05T03:43:13.480Z,999.57
2022-12-05T03:44:13.398Z,999.54
2022-12-05T03:45:13.686Z,999.57
2022-12-05T03:46:13.719Z,999.56
2022-12-05T03:47:13.999Z,999.59
2022-12-05T03:48:12.981Z,999.58
2022-12-05T03:49:12.970Z,999.54
2022-12-05T03:50:12.969Z,999.58
2022-12-05T03:51:13.090Z,999.57
2022-12-05T03:52:13.662Z,999.57
2022-12-05T03:53:20.936Z,999.56
2022-12-05T03:54:13.309Z,999.55
2022-12-05T03:55:13.348Z,999.55
2022-12-05T03:56:13.685Z,999.55
2022-12-05T03:57:14.138Z,999.56
2022-12-05T03:58:13.148Z,999.54
2022-12-05T03:59:13.204Z,999.59
2022-12-05T04:00:13.221Z,999.56
2022-12-05T04:01:13.630Z,999.55
2022-12-05T04:02:13.675Z,999.52
2022-12-05T04:03:13.690Z,999.55
2022-12-05T04:04:14.029Z,999.55
2022-12-05T04:05:13.196Z,999.59
2022-12-05T04:06:13.329Z,999.59
2022-12-05T04:07:13.662Z,999.61
2022-12-05T04:08:14.609Z,999.60
2022-12-05T04:09:17.090Z,999.63
2022-12-05T04:10:13.272Z,999.64
2022-12-05T04:11:13.226Z,999.64
2022-12-05T04:12:13.428Z,999.63
2022-12-05T04:13:13.591Z,999.67
2022-12-05T04:14:13.967Z,999.65
2022-12-05T04:15:13.119Z,999.67
2022-12-05T04:16:13.187Z,999.70
2022-12-05T04:17:13.361Z,999.69
2022-12-05T04:18:13.461Z,999.69
2022-12-05T04:19:13.541Z,999.72
2022-12-05T04:20:13.444Z,999.69
2022-12-05T04:21:13.520Z,999.69
2022-12-05T04:22:13.747Z,999.70
2022-12-05T04:23:13.820Z,999.69
2022-12-05T04:24:13.770Z,999.71
2022-12-05T04:25:14.045Z,999.68
2022-12-05T04:26:12.963Z,999.70
2022-12-05T04:27:12.856Z,999.70
2022-12-05T04:28:19.612Z,999.72
2022-12-05T04:29:13.372Z,999.73
2022-12-05T04:30:13.250Z,999.75
2022-12-05T04:31:13.371Z,999.72
2022-12-05T04:32:13.465Z,999.74
2022-12-05T04:33:13.464Z,999.74
2022-12-05T04:34:13.537Z,999.73
2022-12-05T04:35:13.541Z,999.74
2022-12-05T04:36:13.523Z,999.74
2022-12-05T04:37:13.458Z,999.73
2022-12-05T04:38:13.783Z,999.73
2022-12-05T04:39:17.957Z,999.77
2022-12-05T04:40:13.710Z,999.73
2022-12-05T04:41:13.659Z,999.75
2022-12-05T04:42:13.593Z,999.77
2022-12-05T04:43:13.996Z,999.75
2022-12-05T04:44:13.249Z,999.80
2022-12-05T04:45:13.339Z,999.81
2022-12-05T04:46:13.280Z,999.77
2022-12-05T04:47:13.188Z,999.77
2022-12-05T04:48:13.424Z,999.79
2022-12-05T04:49:13.509Z,999.81
2022-12-05T04:50:13.702Z,999.77
2022-12-05T04:51:14.196Z,999.77
2022-12-05T04:52:13.272Z,999.77
2022-12-05T04:53:13.170Z,999.78
2022-12-05T04:54:13.373Z,999.72
2022-12-05T04:55:13.333Z,999.73
2022-12-05T04:56:13.486Z,999.75
2022-12-05T04:57:13.453Z,999.75
2022-12-05T04:58:13.509Z,999.78
2022-12-05T04:59:13.568Z,999.77
2022-12-05T05:00:13.744Z,999.77
2022-12-05T05:01:13.962Z,999.77
2022-12-05T05:02:13.178Z,999.76
2022-12-05T05:03:13.269Z,999.73
2022-12-05T05:04:13.339Z,999.72
2022-12-05T05:05:14.219Z,999.70
2022-12-05T05:06:13.864Z,999.73
2022-12-05T05:07:13.973Z,999.71
2022-12-05T05:08:13.360Z,999.72
2022-12-05T05:09:13.667Z,999.72
2022-12-05T05:10:13.697Z,999.75
2022-12-05T05:11:13.693Z,999.72
2022-12-05T05:12:18.792Z,999.68
2022-12-05T05:13:13.326Z,999.71
2022-12-05T05:14:13.530Z,999.71
2022-12-05T05:15:13.432Z,999.72
2022-12-05T05:16:13.950Z,999.75
2022-12-05T05:17:13.058Z,999.73
2022-12-05T05:18:13.325Z,999.74
2022-12-05T05:19:13.563Z,999.75
2022-12-05T05:20:16.872Z,999.74
2022-12-05T05:21:13.759Z,999.78
2022-12-05T05:22:13.778Z,999.78
2022-12-05T05:23:13.764Z,999.75
2022-12-05T05:24:14.047Z,999.75
2022-12-05T05:25:13.374Z,999.77
2022-12-05T05:26:13.552Z,999.79
2022-12-05T05:27:13.588Z,999.83
2022-12-05T05:28:13.520Z,999.82
2022-12-05T05:29:13.431Z,999.80
2022-12-05T05:30:13.576Z,999.78
2022-12-05T05:31:13.545Z,999.81
2022-12-05T05:32:13.500Z,999.80
2022-12-05T05:33:13.373Z,999.84
2022-12-05T05:34:13.550Z,999.85
2022-12-05T05:35:13.439Z,999.85
2022-12-05T05:36:13.660Z,999.87
2022-12-05T05:37:13.497Z,999.87
2022-12-05T05:38:13.434Z,999.89
2022-12-05T05:39:13.347Z,999.87
2022-12-05T05:40:13.215Z,999.91
2022-12-05T05:41:13.016Z,999.89
2022-12-05T05:42:12.990Z,999.94
2022-12-05T05:43:12.918Z,999.91
2022-12-05T05:44:13.202Z,999.94
2022-12-05T05:45:13.382Z,999.93
2022-12-05T05:46:13.355Z,999.92
2022-12-05T05:47:13.427Z,999.94
2022-12-05T05:48:13.838Z,999.94
2022-12-05T05:49:13.681Z,999.93
2022-12-05T05:50:19.491Z,999.97
2022-12-05T05:51:13.383Z,999.92
2022-12-05T05:52:13.530Z,999.90
2022-12-05T05:53:13.464Z,999.93
2022-12-05T05:54:13.402Z,999.97
2022-12-05T05:55:13.348Z,999.94
2022-12-05T05:56:17.219Z,999.97
2022-12-05T05:57:18.954Z,999.98
2022-12-05T05:58:13.169Z,999.98
2022-12-05T05:59:13.134Z,999.95
2022-12-05T06:00:13.278Z,999.98
2022-12-05T06:01:13.185Z,1000.01
2022-12-05T06:02:13.515Z,1000.01
2022-12-05T06:03:13.589Z,1000.03
2022-12-05T06:04:13.855Z,1000.01
2022-12-05T06:05:13.085Z,1000.04
2022-12-05T06:06:12.944Z,1000.02
2022-12-05T06:07:12.807Z,1000.02
2022-12-05T06:08:13.940Z,1000.06
2022-12-05T06:09:12.993Z,1000.06
2022-12-05T06:10:12.883Z,1000.07
2022-12-05T06:11:24.569Z,1000.07
2022-12-05T06:12:15.063Z,1000.10
2022-12-05T06:13:13.078Z,1000.08
2022-12-05T06:14:13.434Z,1000.10
2022-12-05T06:15:13.270Z,1000.09
2022-12-05T06:16:13.237Z,1000.08
2022-12-05T06:17:13.199Z,1000.12
2022-12-05T06:18:13.281Z,1000.11
2022-12-05T06:19:13.207Z,1000.09
2022-12-05T06:20:13.213Z,1000.12
2022-12-05T06:21:16.365Z,1000.15
2022-12-05T06:22:14.087Z,1000.13
2022-12-05T06:23:13.135Z,1000.21
2022-12-05T06:24:13.221Z,1000.21
2022-12-05T06:25:13.289Z,1000.14
2022-12-05T06:26:13.535Z,1000.16
2022-12-05T06:27:13.416Z,1000.19
2022-12-05T06:28:13.453Z,1000.22
2022-12-05T06:29:13.368Z,1000.22
2022-12-05T06:30:13.329Z,1000.24
2022-12-05T06:31:13.512Z,1000.23
2022-12-05T06:32:13.435Z,1000.26
2022-12-05T06:33:13.289Z,1000.24
2022-12-05T06:34:13.442Z,1000.25
2022-12-05T06:35:13.289Z,1000.22
2022-12-05T06:36:13.170Z,1000.27
2022-12-05T06:37:13.187Z,1000.25
2022-12-05T06:38:13.148Z,1000.30
2022-12-05T06:39:13.143Z,1000.31
2022-12-05T06:40:18.123Z,1000.33
2022-12-05T06:41:13.021Z,1000.34
2022-12-05T06:42:12.948Z,1000.34
2022-12-05T06:43:13.154Z,1000.33
2022-12-05T06:44:13.231Z,1000.33
2022-12-05T06:45:13.181Z,1000.31
2022-12-05T06:46:13.334Z,1000.34
2022-12-05T06:47:18.509Z,1000.29
2022-12-05T06:48:13.476Z,1000.30
2022-12-05T06:49:13.356Z,1000.33
2022-12-05T06:50:13.255Z,1000.33
2022-12-05T06:51:13.410Z,1000.35
2022-12-05T06:52:13.442Z,1000.35
2022-12-05T06:53:13.827Z,1000.36
2022-12-05T06:54:13.686Z,1000.36
2022-12-05T06:55:13.625Z,1000.34
2022-12-05T06:56:13.729Z,1000.36
2022-12-05T06:57:13.598Z,1000.36
2022-12-05T06:58:13.704Z,1000.38
2022-12-05T06:59:13.652Z,1000.38
2022-12-05T07:00:13.586Z,1000.41
2022-12-05T07:01:13.643Z,1000.38
2022-12-05T07:02:13.721Z,1000.41
2022-12-05T07:03:13.851Z,1000.44
2022-12-05T07:04:14.064Z,1000.40
2022-12-05T07:05:12.973Z,1000.45
2022-12-05T07:06:13.014Z,1000.47
2022-12-05T07:07:12.973Z,1000.47
2022-12-05T07:08:13.809Z,1000.45
2022-12-05T07:09:14.091Z,1000.47
2022-12-05T07:10:12.947Z,1000.47
2022-12-05T07:11:18.073Z,1000.48
2022-12-05T07:12:13.207Z,1000.49
2022-12-05T07:13:15.694Z,1000.47
2022-12-05T07:14:31.273Z,1000.45
2022-12-05T07:15:13.936Z,1000.46
2022-12-05T07:16:12.934Z,1000.49
2022-12-05T07:17:12.922Z,1000.50
2022-12-05T07:18:12.813Z,1000.53
2022-12-05T07:19:13.763Z,1000.54
2022-12-05T07:20:13.951Z,1000.52
2022-12-05T07:21:13.672Z,1000.54
2022-12-05T07:22:15.903Z,1000.53
2022-12-05T07:23:13.303Z,1000.56
2022-12-05T07:24:13.193Z,1000.54
2022-12-05T07:25:13.155Z,1000.57
2022-12-05T07:26:13.031Z,1000.54
2022-12-05T07:27:12.856Z,1000.55
2022-12-05T07:28:13.979Z,1000.56
2022-12-05T07:29:12.994Z,1000.52
2022-12-05T07:30:13.195Z,1000.53
2022-12-05T07:31:13.517Z,1000.53
2022-12-05T07:32:13.567Z,1000.55
2022-12-05T07:33:13.489Z,1000.57
2022-12-05T07:34:13.578Z,1000.55
2022-12-05T07:35:13.525Z,1000.60
2022-12-05T07:36:13.386Z,1000.56
2022-12-05T07:37:13.368Z,1000.59
2022-12-05T07:38:13.681Z,1000.59
2022-12-05T07:39:13.789Z,1000.55
2022-12-05T07:40:13.732Z,1000.58
2022-12-05T07:41:13.857Z,1000.62
2022-12-05T07:42:13.873Z,1000.58
2022-12-05T07:43:14.262Z,1000.63
2022-12-05T07:44:13.530Z,1000.63
2022-12-05T07:45:13.529Z,1000.63
2022-12-05T07:46:13.753Z,1000.63
2022-12-05T07:47:13.823Z,1000.61
2022-12-05T07:48:18.360Z,1000.61
2022-12-05T07:49:14.090Z,1000.64
2022-12-05T07:50:13.414Z,1000.61
2022-12-05T07:51:13.452Z,1000.65
2022-12-05T07:52:13.390Z,1000.63
2022-12-05T07:53:13.574Z,1000.62
2022-12-05T07:54:13.719Z,1000.63
2022-12-05T07:55:14.057Z,1000.58
2022-12-05T07:56:13.144Z,1000.60
2022-12-05T07:57:13.124Z,1000.59
2022-12-05T07:58:13.174Z,1000.61
2022-12-05T07:59:13.121Z,1000.61
2022-12-05T08:00:13.029Z,1000.60
2022-12-05T08:01:12.976Z,1000.65
2022-12-05T08:02:13.120Z,1000.67
2022-12-05T08:03:13.091Z,1000.68
2022-12-05T08:04:15.613Z,1000.70
2022-12-05T08:05:13.361Z,1000.66
2022-12-05T08:06:13.272Z,1000.69
2022-12-05T08:07:13.282Z,1000.72
2022-12-05T08:08:13.423Z,1000.75
2022-12-05T08:09:13.609Z,1000.72
2022-12-05T08:10:13.588Z,1000.76
2022-12-05T08:11:13.509Z,1000.75
2022-12-05T08:12:13.729Z,1000.76
2022-12-05T08:13:13.813Z,1000.77
2022-12-05T08:14:13.956Z,1000.81
2022-12-05T08:15:13.094Z,1000.82
2022-12-05T08:16:13.094Z,1000.82
2022-12-05T08:17:13.162Z,1000.82
2022-12-05T08:18:13.051Z,1000.84
2022-12-05T08:19:12.929Z,1000.83
2022-12-05T08:20:12.927Z,1000.82
2022-12-05T08:21:12.872Z,1000.85
2022-12-05T08:22:14.755Z,1000.84
2022-12-05T08:23:13.972Z,1000.83
2022-12-05T08:24:12.855Z,1000.85
2022-12-05T08:25:13.909Z,1000.87
2022-12-05T08:26:18.274Z,1000.91
2022-12-05T08:27:13.172Z,1000.90
2022-12-05T08:28:13.038Z,1000.93
2022-12-05T08:29:13.082Z,1000.94
2022-12-05T08:30:13.222Z,1000.95
2022-12-05T08:31:13.317Z,1000.97
2022-12-05T08:32:13.268Z,1000.96
2022-12-05T08:33:13.171Z,1000.98
2022-12-05T08:34:13.351Z,1001.00
2022-12-05T08:35:13.215Z,1001.00
2022-12-05T08:36:13.191Z,1001.03
2022-12-05T08:37:13.095Z,1000.99
2022-12-05T08:38:13.069Z,1001.02
2022-12-05T08:39:12.983Z,1000.99
2022-12-05T08:40:13.415Z,1001.02
2022-12-05T08:41:13.399Z,1001.05
2022-12-05T08:42:13.534Z,1001.06
2022-12-05T08:43:13.652Z,1001.10
2022-12-05T08:44:13.704Z,1001.09
2022-12-05T08:45:13.588Z,1001.12
2022-12-05T08:46:13.740Z,1001.13
2022-12-05T08:47:13.978Z,1001.16
2022-12-05T08:48:14.226Z,1001.17
2022-12-05T08:49:13.171Z,1001.15
2022-12-05T08:50:13.160Z,1001.13
2022-12-05T08:51:13.182Z,1001.17
2022-12-05T08:52:13.075Z,1001.18
2022-12-05T08:53:13.080Z,1001.19
2022-12-05T08:54:13.182Z,1001.21
2022-12-05T08:55:13.069Z,1001.20
2022-12-05T08:56:13.176Z,1001.18
2022-12-05T08:57:13.446Z,1001.21
2022-12-05T08:58:13.620Z,1001.21
2022-12-05T08:59:13.551Z,1001.18
2022-12-05T09:00:14.027Z,1001.16
2022-12-05T09:01:12.986Z,1001.18
2022-12-05T09:02:13.086Z,1001.21
2022-12-05T09:03:13.154Z,1001.20
2022-12-05T09:04:13.113Z,1001.22
2022-12-05T09:05:27.008Z,1001.23
2022-12-05T09:06:13.878Z,1001.23
2022-12-05T09:07:13.752Z,1001.20
2022-12-05T09:08:14.008Z,1001.25
2022-12-05T09:09:13.245Z,1001.25
2022-12-05T09:10:13.152Z,1001.25
2022-12-05T09:11:18.310Z,1001.25
2022-12-05T09:12:13.242Z,1001.27
2022-12-05T09:13:13.369Z,1001.28
2022-12-05T09:14:13.383Z,1001.28
2022-12-05T09:15:13.332Z,1001.27
2022-12-05T09:16:13.863Z,1001.28
2022-12-05T09:17:12.813Z,1001.28
2022-12-05T09:18:13.606Z,1001.28
2022-12-05T09:19:13.766Z,1001.29
2022-12-05T09:20:13.655Z,1001.30
2022-12-05T09:21:14.158Z,1001.28
2022-12-05T09:22:13.083Z,1001.31
2022-12-05T09:23:16.097Z,1001.32
2022-12-05T09:24:13.503Z,1001.29
2022-12-05T09:25:13.581Z,1001.31
2022-12-05T09:26:13.508Z,1001.29
2022-12-05T09:27:13.519Z,1001.30
2022-12-05T09:28:13.464Z,1001.33
2022-12-05T09:29:17.252Z,1001.31
2022-12-05T09:30:12.896Z,1001.36
2022-12-05T09:31:13.024Z,1001.36
2022-12-05T09:32:13.099Z,1001.35
2022-12-05T09:33:13.018Z,1001.35
2022-12-05T09:34:13.126Z,1001.40
2022-12-05T09:35:13.174Z,1001.35
2022-12-05T09:36:13.110Z,1001.37
2022-12-05T09:37:37.499Z,1001.36
2022-12-05T09:38:13.411Z,1001.39
2022-12-05T09:39:13.280Z,1001.34
2022-12-05T09:40:13.438Z,1001.36
2022-12-05T09:41:13.639Z,1001.35
2022-12-05T09:42:14.116Z,1001.34
2022-12-05T09:43:13.099Z,1001.37
2022-12-05T09:44:13.264Z,1001.35
2022-12-05T09:45:13.162Z,1001.35
2022-12-05T09:46:13.281Z,1001.37
2022-12-05T09:47:13.395Z,1001.37
2022-12-05T09:48:13.230Z,1001.35
2022-12-05T09:49:13.156Z,1001.39
2022-12-05T09:50:13.092Z,1001.35
2022-12-05T09:51:13.183Z,1001.36
2022-12-05T09:52:13.232Z,1001.40
2022-12-05T09:53:13.121Z,1001.38
2022-12-05T09:54:13.130Z,1001.39
2022-12-05T09:55:13.117Z,1001.38
2022-12-05T09:56:13.058Z,1001.41
2022-12-05T09:57:13.189Z,1001.41
2022-12-05T09:58:13.136Z,1001.41
2022-12-05T09:59:13.041Z,1001.38
2022-12-05T10:00:13.063Z,1001.37
2022-12-05T10:01:13.034Z,1001.34
2022-12-05T10:02:13.263Z,1001.37
2022-12-05T10:03:13.599Z,1001.33
2022-12-05T10:04:13.723Z,1001.35
2022-12-05T10:05:13.741Z,1001.35
2022-12-05T10:06:13.795Z,1001.33
2022-12-05T10:07:13.741Z,1001.36
2022-12-05T10:08:13.880Z,1001.34
2022-12-05T10:09:12.892Z,1001.33
2022-12-05T10:10:19.783Z,1001.33
2022-12-05T10:11:13.624Z,1001.35
2022-12-05T10:12:13.583Z,1001.33
2022-12-05T10:13:13.716Z,1001.30
2022-12-05T10:14:13.995Z,1001.33
2022-12-05T10:15:12.935Z,1001.32
2022-12-05T10:16:12.931Z,1001.34
2022-12-05T10:17:12.858Z,1001.35
2022-12-05T10:18:14.171Z,1001.37
2022-12-05T10:19:13.105Z,1001.33
2022-12-05T10:20:13.232Z,1001.33
2022-12-05T10:21:13.184Z,1001.31
2022-12-05T10:22:18.772Z,1001.34
2022-12-05T10:23:28.265Z,1001.30
2022-12-05T10:24:43.119Z,1001.30
2022-12-05T10:25:13.233Z,1001.31
2022-12-05T10:26:13.235Z,1001.27
2022-12-05T10:27:13.433Z,1001.29
2022-12-05T10:28:13.626Z,1001.33
2022-12-05T10:29:13.700Z,1001.27
2022-12-05T10:30:14.063Z,1001.33
2022-12-05T10:31:13.297Z,1001.30
2022-12-05T10:32:13.323Z,1001.34
2022-12-05T10:33:13.202Z,1001.33
2022-12-05T10:34:13.352Z,1001.33
2022-12-05T10:35:13.267Z,1001.35
2022-12-05T10:36:13.186Z,1001.39
2022-12-05T10:37:13.492Z,1001.36
2022-12-05T10:38:13.506Z,1001.39
2022-12-05T10:39:13.415Z,1001.36
2022-12-05T10:40:13.278Z,1001.33
2022-12-05T10:41:13.621Z,1001.35
2022-12-05T10:42:13.621Z,1001.34
2022-12-05T10:43:13.677Z,1001.33
2022-12-05T10:44:13.607Z,1001.33
2022-12-05T10:45:13.480Z,1001.36
2022-12-05T10:46:17.063Z,1001.40
2022-12-05T10:47:13.825Z,1001.38
2022-12-05T10:48:12.890Z,1001.42
2022-12-05T10:49:12.961Z,1001.40
2022-12-05T10:50:13.049Z,1001.39
2022-12-05T10:51:13.084Z,1001.35
2022-12-05T10:52:13.472Z,1001.33
2022-12-05T10:53:13.366Z,1001.34
2022-12-05T10:54:13.632Z,1001.31
2022-12-05T10:55:13.915Z,1001.34
2022-12-05T10:56:30.789Z,1001.29
2022-12-05T10:57:13.125Z,1001.32
2022-12-05T10:58:17.315Z,1001.30
2022-12-05T10:59:13.180Z,1001.29
2022-12-05T11:00:13.768Z,1001.29
2022-12-05T11:01:13.453Z,1001.27
2022-12-05T11:02:13.857Z,1001.31
2022-12-05T11:03:12.833Z,1001.28
2022-12-05T11:04:14.040Z,1001.26
2022-12-05T11:05:13.004Z,1001.29
2022-12-05T11:06:12.862Z,1001.28
2022-12-05T11:07:13.834Z,1001.29
2022-12-05T11:08:14.209Z,1001.24
2022-12-05T11:09:13.124Z,1001.26
2022-12-05T11:10:13.028Z,1001.24
2022-12-05T11:11:12.952Z,1001.26
2022-12-05T11:12:12.894Z,1001.26
2022-12-05T11:13:12.876Z,1001.23
2022-12-05T11:14:13.972Z,1001.20
2022-12-05T11:15:12.816Z,1001.21
2022-12-05T11:16:13.785Z,1001.20
2022-12-05T11:17:13.763Z,1001.14
2022-12-05T11:18:13.736Z,1001.17
2022-12-05T11:19:13.779Z,1001.15
2022-12-05T11:20:13.702Z,1001.12
2022-12-05T11:21:13.954Z,1001.17
2022-12-05T11:22:13.206Z,1001.15
2022-12-05T11:23:13.361Z,1001.17
2022-12-05T11:24:26.325Z,1001.15
2022-12-05T11:25:18.758Z,1001.15
2022-12-05T11:26:13.694Z,1001.16
2022-12-05T11:27:13.785Z,1001.15
2022-12-05T11:28:13.773Z,1001.17
2022-12-05T11:29:13.804Z,1001.14
2022-12-05T11:30:13.745Z,1001.16
2022-12-05T11:31:14.471Z,1001.15
2022-12-05T11:32:13.532Z,1001.15
2022-12-05T11:33:13.565Z,1001.15
2022-12-05T11:34:13.596Z,1001.18
2022-12-05T11:35:14.147Z,1001.17
2022-12-05T11:36:13.353Z,1001.16
2022-12-05T11:37:13.345Z,1001.17
2022-12-05T11:38:13.551Z,1001.16
2022-12-05T11:39:14.200Z,1001.18
2022-12-05T11:40:13.406Z,1001.18
2022-12-05T11:41:13.512Z,1001.16
2022-12-05T11:42:13.450Z,1001.15
2022-12-05T11:43:26.195Z,1001.14
2022-12-05T11:44:13.433Z,1001.15
2022-12-05T11:45:13.348Z,1001.15
2022-12-05T11:46:13.417Z,1001.13
2022-12-05T11:47:13.768Z,1001.12
2022-12-05T11:48:14.024Z,1001.11
2022-12-05T11:49:13.153Z,1001.12
2022-12-05T11:50:13.199Z,1001.13
2022-12-05T11:51:13.386Z,1001.12
2022-12-05T11:52:13.321Z,1001.08
2022-12-05T11:53:13.611Z,1001.09
2022-12-05T11:54:13.892Z,1001.10
2022-12-05T11:55:12.797Z,1001.10
2022-12-05T11:56:13.865Z,1001.09
2022-12-05T11:57:13.808Z,1001.09
2022-12-05T11:58:14.155Z,1001.10
2022-12-05T11:59:13.403Z,1001.07
2022-12-05T12:00:13.325Z,1001.06
2022-12-05T12:01:13.480Z,1001.07
2022-12-05T12:02:13.487Z,1001.02
2022-12-05T12:03:13.621Z,1001.10
2022-12-05T12:04:13.607Z,1001.07
2022-12-05T12:05:13.753Z,1001.08
2022-12-05T12:06:13.956Z,1001.09
2022-12-05T12:07:12.945Z,1001.09
2022-12-05T12:08:13.044Z,1001.06
2022-12-05T12:09:13.418Z,1001.07
2022-12-05T12:10:13.694Z,1001.10
2022-12-05T12:11:14.148Z,1001.07
2022-12-05T12:12:13.016Z,1001.08
2022-12-05T12:13:13.310Z,1001.08
2022-12-05T12:14:13.185Z,1001.11
2022-12-05T12:15:13.104Z,1001.07
2022-12-05T12:16:13.228Z,1001.11